Time;durP1;ratioP1;P1;durP2;ratioP2;P2;SDS_P1;SDS_P2;PMS_P1;PMS_P2;Temp;Humidity;BMP_temperature;BMP_pressure;BME280_temperature;BME280_humidity;BME280_pressure;Samples;Min_cycle;Max_cycle;Signal;HPM_P1;HPM_P2
2022/05/11 00:00:19;;;;;;;4.27;3.90;;;16.90;99.90;;;;;;494676;240;28817;-70
2022/05/11 00:02:21;;;;;;;3.80;3.50;;;16.80;99.90;;;;;;494665;240;28835;-70
2022/05/11 00:04:22;;;;;;;3.80;3.50;;;16.70;99.90;;;;;;494610;240;28814;-70
2022/05/11 00:06:23;;;;;;;3.60;3.40;;;16.70;99.90;;;;;;494645;240;28765;-70
2022/05/11 00:08:24;;;;;;;3.60;3.40;;;16.70;99.90;;;;;;494685;240;28757;-70
2022/05/11 00:10:25;;;;;;;4.00;3.70;;;16.60;99.90;;;;;;494666;240;28729;-70
2022/05/11 00:12:27;;;;;;;3.83;3.53;;;16.60;99.90;;;;;;494665;236;28876;-70
2022/05/11 00:14:28;;;;;;;4.20;3.90;;;16.60;99.90;;;;;;494643;240;28817;-70
2022/05/11 00:16:29;;;;;;;4.30;4.00;;;16.50;99.90;;;;;;494629;240;29319;-70
2022/05/11 00:18:30;;;;;;;4.40;4.10;;;16.50;99.90;;;;;;494712;236;29214;-71
2022/05/11 00:20:32;;;;;;;3.90;3.50;;;16.50;99.90;;;;;;494705;240;29165;-69
2022/05/11 00:22:33;;;;;;;4.00;3.70;;;16.50;99.90;;;;;;494670;240;29221;-72
2022/05/11 00:24:35;;;;;;;3.90;3.60;;;16.40;99.90;;;;;;494663;240;28782;-70
2022/05/11 00:26:35;;;;;;;3.90;3.60;;;16.40;99.90;;;;;;494580;240;28852;-70
2022/05/11 00:28:37;;;;;;;3.83;3.53;;;16.40;99.90;;;;;;494653;240;28796;-71
2022/05/11 00:30:38;;;;;;;3.87;3.67;;;16.40;99.90;;;;;;494640;240;28825;-70
2022/05/11 00:32:39;;;;;;;4.30;4.00;;;16.40;99.90;;;;;;494665;240;28760;-71
2022/05/11 00:34:40;;;;;;;3.97;3.57;;;16.40;99.90;;;;;;494636;240;28722;-70
2022/05/11 00:36:42;;;;;;;3.80;3.60;;;16.40;99.90;;;;;;494653;240;28853;-71
2022/05/11 00:38:44;;;;;;;3.90;3.60;;;16.40;99.90;;;;;;494665;240;28954;-72
2022/05/11 00:40:44;;;;;;;4.10;3.80;;;16.30;99.90;;;;;;494538;240;29172;-70
2022/05/11 00:42:45;;;;;;;4.07;3.77;;;16.30;99.90;;;;;;494630;240;29233;-70
2022/05/11 00:44:47;;;;;;;3.30;3.10;;;16.30;99.90;;;;;;494637;240;29221;-70
2022/05/11 00:46:48;;;;;;;3.40;3.20;;;16.30;99.90;;;;;;494634;240;29221;-70
2022/05/11 00:51:09;;;;;;;3.50;3.30;;;16.20;99.90;;;;;;494637;240;28800;-71
2022/05/11 00:53:11;;;;;;;3.43;3.23;;;16.20;99.90;;;;;;494619;237;28824;-70
2022/05/11 00:55:13;;;;;;;3.60;3.40;;;16.20;99.90;;;;;;494634;240;28809;-71
2022/05/11 00:57:13;;;;;;;3.60;3.40;;;16.20;99.90;;;;;;494640;240;28781;-71
2022/05/11 00:59:15;;;;;;;4.60;4.30;;;16.20;99.90;;;;;;494644;240;29178;-70
2022/05/11 01:01:16;;;;;;;4.00;3.70;;;16.20;99.90;;;;;;494618;240;29319;-70
2022/05/11 01:03:17;;;;;;;4.43;4.13;;;16.20;99.90;;;;;;494656;240;29364;-70
2022/05/11 01:05:18;;;;;;;4.10;3.80;;;16.20;99.90;;;;;;494677;240;29192;-71
2022/05/11 01:07:20;;;;;;;4.10;3.80;;;16.20;99.90;;;;;;494641;240;28869;-70
2022/05/11 01:09:21;;;;;;;3.60;3.40;;;16.20;99.90;;;;;;494596;240;28727;-70
2022/05/11 01:11:22;;;;;;;4.07;3.77;;;16.20;99.90;;;;;;494640;240;29301;-70
2022/05/11 01:13:23;;;;;;;4.33;4.03;;;16.10;99.90;;;;;;494660;240;28740;-73
2022/05/11 01:15:25;;;;;;;4.37;4.00;;;16.10;99.90;;;;;;494673;240;28742;-70
2022/05/11 01:17:26;;;;;;;3.67;3.40;;;16.10;99.90;;;;;;494597;240;28872;-71
2022/05/11 01:19:27;;;;;;;4.43;4.13;;;16.00;99.90;;;;;;494664;240;28728;-70
2022/05/11 01:21:28;;;;;;;4.00;3.70;;;16.00;99.90;;;;;;494624;240;28848;-70
2022/05/11 01:23:32;;;;;;;4.50;4.20;;;16.00;99.90;;;;;;494683;240;29161;-71
2022/05/11 01:25:31;;;;;;;3.90;3.60;;;16.00;99.90;;;;;;494533;240;29250;-72
2022/05/11 01:27:32;;;;;;;4.40;4.10;;;16.00;99.90;;;;;;494635;240;29347;-72
2022/05/11 01:29:34;;;;;;;4.03;3.73;;;16.00;99.90;;;;;;494618;240;29282;-70
2022/05/11 01:31:35;;;;;;;3.93;3.63;;;16.00;99.90;;;;;;494631;240;29334;-71
2022/05/11 01:33:37;;;;;;;4.30;4.00;;;16.00;99.90;;;;;;494654;240;28837;-75
2022/05/11 01:35:37;;;;;;;4.00;3.63;;;16.00;99.90;;;;;;494608;240;28714;-70
2022/05/11 01:37:39;;;;;;;4.03;3.73;;;16.00;99.90;;;;;;494669;240;28860;-70
2022/05/11 01:39:40;;;;;;;4.37;4.07;;;15.90;99.90;;;;;;494637;240;28730;-70
2022/05/11 01:41:41;;;;;;;4.23;3.93;;;15.90;99.90;;;;;;494619;240;28816;-70
2022/05/11 01:43:42;;;;;;;3.63;3.33;;;15.90;99.90;;;;;;494651;240;28833;-70
2022/05/11 01:45:44;;;;;;;4.00;3.70;;;15.80;99.90;;;;;;494648;240;29316;-70
2022/05/11 01:47:45;;;;;;;3.63;3.33;;;15.80;99.90;;;;;;494625;239;29342;-71
2022/05/11 01:49:46;;;;;;;4.20;3.90;;;15.80;99.90;;;;;;494677;240;29307;-70
2022/05/11 01:51:47;;;;;;;4.20;3.90;;;15.70;99.90;;;;;;494664;240;29288;-70
2022/05/11 01:53:49;;;;;;;4.20;3.70;;;15.70;99.90;;;;;;494682;236;28757;-71
2022/05/11 01:55:50;;;;;;;4.33;4.00;;;15.70;99.90;;;;;;494645;240;28726;-70
2022/05/11 01:57:51;;;;;;;4.20;3.90;;;15.60;99.90;;;;;;494650;240;28751;-71
2022/05/11 01:59:53;;;;;;;4.60;4.20;;;15.50;99.90;;;;;;494624;240;28741;-70
2022/05/11 02:01:54;;;;;;;4.20;3.90;;;15.50;99.90;;;;;;494622;240;28752;-70
2022/05/11 02:03:55;;;;;;;4.10;3.80;;;15.40;99.90;;;;;;494462;240;28801;-72
2022/05/11 02:08:16;;;;;;;3.80;3.50;;;15.40;99.90;;;;;;494575;240;29343;-70
2022/05/11 02:10:17;;;;;;;4.83;4.43;;;15.40;99.90;;;;;;494670;240;29214;-71
2022/05/11 02:12:18;;;;;;;4.07;3.77;;;15.40;99.90;;;;;;494658;240;29173;-70
2022/05/11 02:14:20;;;;;;;4.20;3.90;;;15.30;99.90;;;;;;494639;240;28753;-72
2022/05/11 02:16:21;;;;;;;4.40;4.00;;;15.30;99.90;;;;;;494619;240;28788;-69
2022/05/11 02:18:22;;;;;;;4.90;4.50;;;15.30;99.90;;;;;;494629;240;29269;-70
2022/05/11 02:20:23;;;;;;;4.20;3.80;;;15.30;99.90;;;;;;494670;240;29315;-70
2022/05/11 02:22:24;;;;;;;4.27;3.97;;;15.30;99.90;;;;;;494634;240;29337;-70
2022/05/11 02:24:26;;;;;;;4.10;3.80;;;15.30;99.90;;;;;;494652;240;28746;-70
2022/05/11 02:26:27;;;;;;;4.33;4.03;;;15.30;99.90;;;;;;494615;240;28781;-70
2022/05/11 02:28:28;;;;;;;4.40;4.03;;;15.30;99.90;;;;;;494609;240;28897;-70
2022/05/11 02:30:29;;;;;;;4.50;4.10;;;15.30;99.90;;;;;;494654;240;28864;-71
2022/05/11 02:32:31;;;;;;;4.30;4.00;;;15.30;99.90;;;;;;494619;240;28903;-71
2022/05/11 02:36:51;;;;;;;4.30;3.90;;;15.30;99.90;;;;;;494513;240;28814;-70
2022/05/11 02:38:53;;;;;;;4.80;4.50;;;15.30;99.90;;;;;;494598;240;28781;-70
2022/05/11 02:40:54;;;;;;;4.03;3.77;;;15.20;99.90;;;;;;494563;240;28780;-71
2022/05/11 02:42:55;;;;;;;4.70;4.30;;;15.20;99.90;;;;;;494637;240;29236;-70
2022/05/11 02:44:56;;;;;;;4.90;3.87;;;15.10;99.90;;;;;;494610;240;29336;-70
2022/05/11 02:46:58;;;;;;;4.93;4.53;;;15.20;99.90;;;;;;494618;240;29390;-69
2022/05/11 02:48:59;;;;;;;4.93;4.53;;;15.10;99.90;;;;;;494659;240;28828;-71
2022/05/11 02:51:00;;;;;;;4.23;3.93;;;15.10;99.90;;;;;;494685;240;28780;-71
2022/05/11 02:53:07;;;;;;;4.70;4.30;;;15.10;99.90;;;;;;494667;240;28927;-71
2022/05/11 02:55:05;;;;;;;4.37;4.07;;;15.00;99.90;;;;;;494415;240;28822;-70
2022/05/11 02:57:07;;;;;;;4.20;3.80;;;15.00;99.90;;;;;;494642;240;28860;-70
2022/05/11 02:59:08;;;;;;;5.03;4.63;;;15.00;99.90;;;;;;494642;240;28745;-70
2022/05/11 03:01:09;;;;;;;4.20;3.90;;;15.00;99.90;;;;;;494655;240;29335;-70
2022/05/11 03:03:11;;;;;;;3.43;3.23;;;14.90;99.90;;;;;;494665;240;29229;-72
2022/05/11 03:05:12;;;;;;;4.20;3.90;;;14.90;99.90;;;;;;494625;240;28833;-70
2022/05/11 03:07:13;;;;;;;4.23;3.93;;;14.90;99.90;;;;;;494642;240;28968;-70
2022/05/11 03:09:15;;;;;;;3.80;3.50;;;14.90;99.90;;;;;;494613;240;29242;-70
2022/05/11 03:11:15;;;;;;;4.13;3.83;;;14.90;99.90;;;;;;494665;240;29170;-70
2022/05/11 03:13:17;;;;;;;4.50;4.13;;;14.80;99.90;;;;;;494673;240;29232;-73
2022/05/11 03:15:18;;;;;;;4.60;4.20;;;14.80;99.90;;;;;;494674;240;28722;-70
2022/05/11 03:17:19;;;;;;;4.00;3.60;;;14.80;99.90;;;;;;494656;240;28922;-71
2022/05/11 03:19:20;;;;;;;4.00;3.70;;;14.70;99.90;;;;;;494634;240;28722;-70
2022/05/11 03:21:23;;;;;;;4.20;3.90;;;14.70;99.90;;;;;;494666;240;28724;-70
2022/05/11 03:23:25;;;;;;;4.20;3.90;;;14.70;99.90;;;;;;494669;240;28799;-71
2022/05/11 03:25:30;;;;;;;4.40;4.10;;;14.80;99.90;;;;;;494602;240;29225;-70
2022/05/11 03:27:26;;;;;;;4.40;4.10;;;14.80;99.90;;;;;;494074;240;29276;-70
2022/05/11 03:29:28;;;;;;;4.67;4.03;;;14.80;99.90;;;;;;494681;240;29315;-70
2022/05/11 03:31:29;;;;;;;3.90;3.60;;;14.80;99.90;;;;;;494742;240;29222;-70
2022/05/11 03:35:50;;;;;;;3.80;3.50;;;14.80;99.90;;;;;;494660;240;28709;-70
2022/05/11 03:37:51;;;;;;;4.63;4.27;;;14.80;99.90;;;;;;494631;240;28333;-71
2022/05/11 03:39:52;;;;;;;4.43;4.00;;;14.80;99.90;;;;;;494665;240;29173;-70
2022/05/11 03:41:54;;;;;;;4.00;3.70;;;14.80;99.90;;;;;;494661;240;29165;-70
2022/05/11 03:43:55;;;;;;;4.00;3.70;;;14.80;99.90;;;;;;494645;240;28850;-70
2022/05/11 03:45:56;;;;;;;4.57;4.27;;;14.80;99.90;;;;;;494673;240;28807;-70
2022/05/11 03:47:57;;;;;;;3.83;3.53;;;14.80;99.90;;;;;;494649;240;28782;-71
2022/05/11 03:49:59;;;;;;;4.03;3.73;;;14.80;99.90;;;;;;494616;240;28551;-71
2022/05/11 03:52:01;;;;;;;3.33;3.13;;;14.70;99.90;;;;;;494608;240;28844;-70
2022/05/11 03:54:01;;;;;;;6.47;3.83;;;14.70;99.90;;;;;;494595;240;28765;-70
2022/05/11 03:56:02;;;;;;;4.43;3.50;;;14.80;99.90;;;;;;494653;240;28724;-70
2022/05/11 03:58:04;;;;;;;3.97;3.67;;;14.80;99.90;;;;;;494672;240;28784;-71
2022/05/11 04:00:06;;;;;;;4.40;4.07;;;14.80;99.90;;;;;;494633;240;28500;-70
2022/05/11 04:02:06;;;;;;;4.17;3.87;;;14.80;99.90;;;;;;494544;240;28754;-70
2022/05/11 04:04:07;;;;;;;4.60;4.30;;;14.80;99.90;;;;;;494619;240;29569;-72
2022/05/11 04:06:09;;;;;;;4.30;4.00;;;14.70;99.90;;;;;;494480;240;29182;-70
2022/05/11 04:08:10;;;;;;;4.33;4.03;;;14.70;99.90;;;;;;494433;240;29371;-71
2022/05/11 04:10:11;;;;;;;3.87;3.60;;;14.70;99.90;;;;;;494365;240;30135;-70
2022/05/11 04:12:13;;;;;;;4.07;3.77;;;14.70;99.90;;;;;;494581;240;28843;-70
2022/05/11 04:14:14;;;;;;;4.63;4.23;;;14.70;99.90;;;;;;494643;240;28632;-74
2022/05/11 04:16:15;;;;;;;4.40;4.10;;;14.70;99.90;;;;;;494668;240;28805;-70
2022/05/11 04:18:16;;;;;;;4.43;4.13;;;14.70;99.90;;;;;;494644;240;28950;-71
2022/05/11 04:20:17;;;;;;;4.37;4.07;;;14.70;99.90;;;;;;494623;240;28729;-70
2022/05/11 04:22:19;;;;;;;4.27;3.97;;;14.70;99.90;;;;;;494676;240;28788;-71
2022/05/11 04:24:20;;;;;;;3.90;3.60;;;14.70;99.90;;;;;;494668;240;28446;-70
2022/05/11 04:26:21;;;;;;;3.60;3.30;;;14.80;99.90;;;;;;494659;240;28710;-70
2022/05/11 04:28:23;;;;;;;3.83;3.53;;;14.70;99.90;;;;;;494618;240;28833;-70
2022/05/11 04:30:26;;;;;;;4.23;3.93;;;14.80;99.90;;;;;;494632;240;29919;-70
2022/05/11 04:32:25;;;;;;;4.40;4.10;;;14.80;99.90;;;;;;494499;240;29295;-70
2022/05/11 04:34:26;;;;;;;4.50;4.20;;;14.90;99.90;;;;;;494643;240;29241;-71
2022/05/11 04:36:28;;;;;;;4.20;3.90;;;14.90;99.90;;;;;;494673;240;28820;-70
2022/05/11 04:38:29;;;;;;;4.80;4.50;;;14.90;99.90;;;;;;494551;240;28844;-71
2022/05/11 04:40:30;;;;;;;4.63;4.23;;;14.90;99.90;;;;;;494590;240;28860;-70
2022/05/11 04:42:32;;;;;;;4.60;4.20;;;14.90;99.90;;;;;;494673;240;28804;-70
2022/05/11 04:44:32;;;;;;;4.53;4.23;;;14.90;99.90;;;;;;494599;240;28886;-72
2022/05/11 04:46:36;;;;;;;4.13;3.83;;;15.00;99.90;;;;;;494634;240;28343;-70
2022/05/11 04:48:38;;;;;;;4.23;3.93;;;15.10;99.90;;;;;;494660;240;28548;-71
2022/05/11 04:50:38;;;;;;;4.83;4.53;;;15.10;99.90;;;;;;494510;240;28813;-70
2022/05/11 04:52:39;;;;;;;4.50;4.20;;;15.20;99.90;;;;;;494662;240;29235;-70
2022/05/11 04:54:41;;;;;;;4.70;4.30;;;15.20;99.90;;;;;;494659;240;29325;-70
2022/05/11 04:56:42;;;;;;;4.20;3.90;;;15.30;99.90;;;;;;494636;240;29287;-70
2022/05/11 04:58:44;;;;;;;4.27;3.97;;;15.30;99.90;;;;;;494646;240;28859;-70
2022/05/11 05:00:44;;;;;;;4.97;4.57;;;15.30;99.90;;;;;;494625;240;28741;-70
2022/05/11 05:02:46;;;;;;;4.10;3.80;;;15.40;99.90;;;;;;494676;240;28725;-70
2022/05/11 05:04:47;;;;;;;5.20;4.80;;;15.40;99.90;;;;;;494643;240;28846;-72
2022/05/11 05:06:48;;;;;;;5.20;4.27;;;15.50;99.90;;;;;;494602;240;28824;-70
2022/05/11 05:08:51;;;;;;;5.30;4.90;;;15.50;99.90;;;;;;494650;240;28498;-71
2022/05/11 05:10:51;;;;;;;4.70;4.30;;;15.60;99.90;;;;;;494499;240;28853;-70
2022/05/11 05:12:52;;;;;;;4.67;4.27;;;15.60;99.90;;;;;;494613;240;28720;-70
2022/05/11 05:14:53;;;;;;;4.40;4.10;;;15.70;99.90;;;;;;494683;240;28943;-70
2022/05/11 05:16:56;;;;;;;5.20;4.80;;;15.70;99.90;;;;;;494543;240;29265;-70
2022/05/11 05:18:56;;;;;;;5.13;4.73;;;15.80;99.90;;;;;;494579;240;29311;-70
2022/05/11 05:20:57;;;;;;;4.40;4.10;;;15.80;99.90;;;;;;494654;240;29406;-70
2022/05/11 05:22:58;;;;;;;4.30;4.00;;;15.80;99.90;;;;;;494684;240;28728;-70
2022/05/11 05:24:59;;;;;;;4.90;4.50;;;15.90;99.90;;;;;;494615;240;28895;-70
2022/05/11 05:27:01;;;;;;;5.07;4.70;;;16.00;99.90;;;;;;494650;240;28714;-70
2022/05/11 05:31:21;;;;;;;5.03;4.53;;;16.00;99.90;;;;;;494653;240;28777;-74
2022/05/11 05:33:23;;;;;;;5.93;4.63;;;16.10;99.90;;;;;;494664;240;28722;-70
2022/05/11 05:35:24;;;;;;;4.57;4.17;;;16.20;99.90;;;;;;494640;240;28854;-71
2022/05/11 05:37:25;;;;;;;5.00;4.60;;;16.20;99.90;;;;;;494632;240;28836;-70
2022/05/11 05:39:26;;;;;;;4.33;4.03;;;16.20;99.90;;;;;;494696;240;28832;-70
2022/05/11 05:41:28;;;;;;;5.10;4.70;;;16.30;99.90;;;;;;494663;240;29351;-72
2022/05/11 05:43:29;;;;;;;5.27;4.87;;;16.30;99.90;;;;;;494653;240;29171;-70
2022/05/11 05:45:30;;;;;;;4.50;4.20;;;16.40;99.90;;;;;;494618;240;29244;-70
2022/05/11 05:47:31;;;;;;;4.57;4.27;;;16.40;99.90;;;;;;494637;240;28705;-70
2022/05/11 05:49:33;;;;;;;6.70;4.90;;;16.50;99.90;;;;;;494676;240;28920;-70
2022/05/11 05:51:34;;;;;;;5.50;5.10;;;16.50;99.90;;;;;;494592;240;28853;-73
2022/05/11 05:53:35;;;;;;;5.47;5.07;;;16.50;99.90;;;;;;494649;240;28733;-70
2022/05/11 05:55:36;;;;;;;4.83;4.50;;;16.60;99.90;;;;;;494650;240;29228;-70
2022/05/11 05:57:38;;;;;;;4.87;4.57;;;16.60;99.90;;;;;;494619;240;29968;-70
2022/05/11 05:59:39;;;;;;;5.60;5.20;;;16.60;99.90;;;;;;494671;240;29262;-70
2022/05/11 06:01:40;;;;;;;5.60;5.20;;;16.60;99.90;;;;;;494672;240;28773;-72
2022/05/11 06:03:42;;;;;;;6.30;5.70;;;16.70;99.90;;;;;;494672;240;28812;-71
2022/05/11 06:05:43;;;;;;;5.27;4.87;;;16.80;99.90;;;;;;494584;240;28763;-70
2022/05/11 06:07:44;;;;;;;5.37;4.87;;;16.80;99.90;;;;;;494435;240;29606;-72
2022/05/11 06:09:46;;;;;;;5.10;4.80;;;16.80;99.90;;;;;;494645;240;29180;-71
2022/05/11 06:11:48;;;;;;;5.80;5.30;;;16.90;99.90;;;;;;494644;240;28794;-70
2022/05/11 06:13:49;;;;;;;5.93;5.33;;;16.90;99.90;;;;;;494652;240;28761;-70
2022/05/11 06:15:50;;;;;;;5.80;5.30;;;16.90;99.90;;;;;;494655;240;29387;-70
2022/05/11 06:17:51;;;;;;;5.53;5.13;;;17.00;99.90;;;;;;494679;240;29321;-70
2022/05/11 06:19:53;;;;;;;4.97;4.63;;;17.10;99.90;;;;;;494722;240;29343;-70
2022/05/11 06:21:54;;;;;;;6.10;5.63;;;17.00;99.90;;;;;;494667;240;28756;-70
2022/05/11 06:23:55;;;;;;;5.60;5.10;;;17.10;99.90;;;;;;494662;240;28879;-70
2022/05/11 06:25:56;;;;;;;4.63;4.33;;;17.20;99.90;;;;;;494661;240;28844;-71
2022/05/11 06:28:00;;;;;;;4.97;4.50;;;17.20;99.90;;;;;;494693;240;28706;-70
2022/05/11 06:30:01;;;;;;;5.77;5.27;;;17.30;99.90;;;;;;494684;240;28832;-72
2022/05/11 06:32:03;;;;;;;5.40;5.00;;;17.30;99.90;;;;;;494664;240;28799;-72
2022/05/11 06:34:04;;;;;;;5.90;5.40;;;17.30;99.90;;;;;;494681;240;29315;-71
2022/05/11 06:36:05;;;;;;;5.60;5.10;;;17.40;99.90;;;;;;494648;240;29351;-72
2022/05/11 06:38:06;;;;;;;5.67;5.27;;;17.40;99.90;;;;;;494644;240;30048;-71
2022/05/11 06:40:08;;;;;;;6.63;5.23;;;17.50;99.90;;;;;;494690;240;28710;-70
2022/05/11 06:42:09;;;;;;;5.83;5.40;;;17.50;99.90;;;;;;494696;240;28818;-74
2022/05/11 06:44:11;;;;;;;5.67;5.17;;;17.60;99.90;;;;;;494684;240;28718;-71
2022/05/11 06:46:12;;;;;;;6.70;6.20;;;17.70;99.90;;;;;;494538;240;28859;-71
2022/05/11 06:48:14;;;;;;;5.67;5.27;;;17.70;99.90;;;;;;494658;240;28827;-71
2022/05/11 06:50:14;;;;;;;6.13;5.63;;;17.80;99.90;;;;;;494598;240;28927;-71
2022/05/11 06:52:17;;;;;;;6.67;6.07;;;17.80;99.90;;;;;;494658;240;28979;-73
2022/05/11 07:01:17;;;;;;;7.07;6.37;;;18.10;99.90;;;;;;494634;240;29405;-71
2022/05/11 07:03:19;;;;;;;5.77;5.37;;;18.10;99.90;;;;;;494700;240;28928;-71
2022/05/11 07:05:20;;;;;;;5.57;5.17;;;18.10;99.90;;;;;;494699;240;28829;-71
2022/05/11 07:07:21;;;;;;;8.40;5.83;;;18.20;99.90;;;;;;494654;240;28824;-70
2022/05/11 07:09:23;;;;;;;5.20;4.80;;;18.20;99.90;;;;;;494658;240;28870;-70
2022/05/11 07:13:43;;;;;;;5.60;5.10;;;18.30;99.90;;;;;;494674;240;28836;-71
2022/05/11 07:15:45;;;;;;;5.80;5.30;;;18.40;99.90;;;;;;494643;240;28892;-71
2022/05/11 07:17:46;;;;;;;5.60;5.10;;;18.40;99.90;;;;;;494655;240;28990;-70
2022/05/11 07:19:47;;;;;;;7.23;6.23;;;18.60;99.90;;;;;;494681;240;28859;-70
2022/05/11 07:21:48;;;;;;;5.90;5.50;;;18.60;99.90;;;;;;494680;240;28746;-71
2022/05/11 07:23:49;;;;;;;6.40;5.67;;;18.60;99.90;;;;;;494659;240;28797;-70
2022/05/11 07:25:51;;;;;;;6.27;5.77;;;18.60;99.90;;;;;;494686;240;29222;-71
2022/05/11 07:27:52;;;;;;;6.07;5.47;;;18.80;99.90;;;;;;494669;240;29234;-72
2022/05/11 07:29:53;;;;;;;5.90;5.30;;;18.80;99.90;;;;;;494684;240;29281;-70
2022/05/11 07:31:54;;;;;;;5.70;5.30;;;18.80;99.90;;;;;;494652;240;28783;-71
2022/05/11 07:33:56;;;;;;;5.67;5.20;;;18.90;99.90;;;;;;494670;240;28768;-70
2022/05/11 07:35:57;;;;;;;6.20;5.70;;;18.80;99.90;;;;;;494666;240;28739;-70
2022/05/11 07:37:59;;;;;;;5.67;5.27;;;19.00;99.90;;;;;;494677;240;28746;-72
2022/05/11 07:40:00;;;;;;;5.80;5.30;;;19.10;99.90;;;;;;494615;240;28899;-71
2022/05/11 07:42:01;;;;;;;5.20;4.80;;;19.10;99.90;;;;;;494675;240;28773;-72
2022/05/11 07:44:02;;;;;;;5.53;5.13;;;19.10;99.90;;;;;;494682;240;28825;-70
2022/05/11 07:46:03;;;;;;;5.40;5.00;;;19.10;99.90;;;;;;494672;240;28792;-70
2022/05/11 07:48:04;;;;;;;4.77;4.47;;;19.10;99.90;;;;;;494596;240;28895;-72
2022/05/11 07:50:06;;;;;;;5.53;5.13;;;19.10;99.90;;;;;;494671;240;28728;-71
2022/05/11 07:52:07;;;;;;;5.47;5.07;;;19.30;99.90;;;;;;494624;240;28765;-71
2022/05/11 07:54:08;;;;;;;5.87;5.37;;;19.40;99.90;;;;;;494580;240;28836;-74
2022/05/11 08:00:48;;;;;;;5.50;5.10;;;19.50;99.90;;;;;;494654;240;29100;-75
2022/05/11 08:02:50;;;;;;;4.87;4.50;;;19.40;99.90;;;;;;494705;240;28830;-71
2022/05/11 08:04:51;;;;;;;5.23;4.90;;;19.60;99.90;;;;;;494695;240;29233;-73
2022/05/11 08:06:52;;;;;;;4.80;4.40;;;19.70;99.90;;;;;;494659;240;29293;-71
2022/05/11 08:08:53;;;;;;;4.90;4.53;;;19.80;99.90;;;;;;494630;240;29319;-71
2022/05/11 08:10:55;;;;;;;5.20;4.70;;;19.80;99.90;;;;;;494642;240;28772;-70
2022/05/11 08:12:56;;;;;;;4.60;4.30;;;19.80;99.90;;;;;;494641;240;28797;-71
2022/05/11 08:14:57;;;;;;;4.67;4.37;;;20.00;99.90;;;;;;494636;240;28761;-72
2022/05/11 08:16:59;;;;;;;5.33;4.70;;;20.10;99.90;;;;;;494620;240;28814;-71
2022/05/11 08:19:00;;;;;;;4.73;4.33;;;20.10;99.90;;;;;;494624;240;28742;-71
2022/05/11 08:21:01;;;;;;;5.43;4.93;;;20.00;99.90;;;;;;494649;240;28779;-71
2022/05/11 08:23:03;;;;;;;4.67;4.27;;;20.10;99.90;;;;;;494636;240;28831;-71
2022/05/11 08:25:03;;;;;;;4.87;4.43;;;20.20;99.90;;;;;;494591;240;28749;-74
2022/05/11 08:27:09;;;;;;;4.93;4.40;;;20.20;99.90;;;;;;494640;240;28838;-71
2022/05/11 08:29:06;;;;;;;4.50;4.20;;;20.20;99.90;;;;;;494222;240;29315;-72
2022/05/11 08:33:27;;;;;;;4.80;4.40;;;20.20;99.90;;;;;;494632;240;28753;-71
2022/05/11 08:35:29;;;;;;;4.63;4.33;;;20.30;99.90;;;;;;494513;240;28766;-71
2022/05/11 08:37:29;;;;;;;5.00;4.60;;;20.40;99.90;;;;;;494592;240;28825;-71
2022/05/11 08:39:30;;;;;;;5.23;4.83;;;20.40;99.90;;;;;;494645;240;28723;-72
2022/05/11 08:41:32;;;;;;;5.20;4.70;;;20.50;99.90;;;;;;494631;240;28780;-72
2022/05/11 08:43:33;;;;;;;4.57;4.13;;;20.60;99.90;;;;;;494601;240;28840;-71
2022/05/11 08:45:34;;;;;;;4.33;4.03;;;20.70;99.90;;;;;;494617;240;28769;-71
2022/05/11 08:47:35;;;;;;;10.03;4.40;;;20.80;99.90;;;;;;494600;240;29229;-71
2022/05/11 08:49:37;;;;;;;4.40;4.10;;;20.80;99.90;;;;;;494604;240;29203;-70
2022/05/11 08:51:38;;;;;;;4.90;4.50;;;20.80;99.90;;;;;;494623;240;29387;-73
2022/05/11 08:53:39;;;;;;;4.20;3.90;;;20.70;99.90;;;;;;494601;240;29260;-71
2022/05/11 08:55:41;;;;;;;4.53;4.20;;;20.90;99.90;;;;;;494649;240;29399;-71
2022/05/11 08:57:42;;;;;;;5.30;4.80;;;20.90;99.90;;;;;;494615;240;28845;-71
2022/05/11 08:59:43;;;;;;;6.30;4.13;;;21.00;99.90;;;;;;494582;240;28819;-71
2022/05/11 09:01:45;;;;;;;4.80;4.40;;;21.10;99.90;;;;;;494610;240;28835;-75
2022/05/11 09:03:46;;;;;;;4.30;4.00;;;21.10;99.90;;;;;;494620;240;28938;-71
2022/05/11 09:05:47;;;;;;;4.60;4.20;;;21.00;99.90;;;;;;494622;240;28942;-71
2022/05/11 09:07:49;;;;;;;5.20;4.80;;;21.00;99.90;;;;;;494452;240;28805;-70
2022/05/11 09:09:49;;;;;;;4.50;4.20;;;21.10;99.90;;;;;;494559;240;28713;-71
2022/05/11 09:11:50;;;;;;;4.30;4.00;;;21.20;99.90;;;;;;494628;240;28789;-72
2022/05/11 09:13:52;;;;;;;6.63;4.37;;;21.30;99.90;;;;;;494601;240;29280;-73
2022/05/11 09:15:56;;;;;;;4.80;3.57;;;21.40;99.90;;;;;;494609;240;29237;-72
2022/05/11 09:17:57;;;;;;;4.63;4.20;;;21.50;99.90;;;;;;494622;240;28761;-71
2022/05/11 09:19:59;;;;;;;4.20;3.90;;;21.50;99.90;;;;;;494635;240;28776;-75
2022/05/11 09:22:00;;;;;;;5.23;4.60;;;21.50;99.90;;;;;;494624;240;28824;-71
2022/05/11 09:24:01;;;;;;;4.50;4.10;;;21.40;99.90;;;;;;494629;240;28749;-72
2022/05/11 09:26:02;;;;;;;4.80;4.40;;;21.50;99.90;;;;;;494608;240;28740;-71
2022/05/11 09:28:04;;;;;;;4.10;3.80;;;21.60;99.90;;;;;;494611;240;28761;-71
2022/05/11 09:30:05;;;;;;;4.60;4.30;;;21.50;99.90;;;;;;494662;240;28749;-77
2022/05/11 09:32:06;;;;;;;4.30;4.00;;;21.60;99.90;;;;;;494639;240;28722;-72
2022/05/11 09:34:08;;;;;;;7.03;4.17;;;21.80;99.90;;;;;;494628;240;29228;-72
2022/05/11 09:36:09;;;;;;;4.60;4.30;;;21.80;99.90;;;;;;494622;240;29289;-71
2022/05/11 09:38:13;;;;;;;21.77;4.70;;;21.90;99.90;;;;;;494614;240;29224;-72
2022/05/11 09:40:16;;;;;;;27.60;4.60;;;21.70;99.90;;;;;;494626;240;28872;-71
2022/05/11 09:42:15;;;;;;;7.70;4.90;;;21.70;99.90;;;;;;494369;240;28843;-71
2022/05/11 09:44:16;;;;;;;4.40;4.00;;;21.70;99.90;;;;;;494619;240;28821;-71
2022/05/11 09:46:18;;;;;;;3.77;3.47;;;21.80;99.90;;;;;;494641;240;28817;-74
2022/05/11 09:48:19;;;;;;;3.90;3.50;;;22.00;99.90;;;;;;494551;240;28911;-71
2022/05/11 09:50:20;;;;;;;3.97;3.57;;;22.00;99.90;;;;;;494621;240;28880;-71
2022/05/11 09:52:21;;;;;;;4.20;3.90;;;22.10;99.90;;;;;;494614;240;29128;-72
2022/05/11 09:54:23;;;;;;;5.77;4.10;;;22.20;99.90;;;;;;494645;240;28797;-71
2022/05/11 09:56:24;;;;;;;4.30;3.90;;;22.30;99.90;;;;;;494568;240;28753;-72
2022/05/11 09:58:25;;;;;;;5.20;3.67;;;22.30;99.90;;;;;;494589;240;29328;-71
2022/05/11 10:00:29;;;;;;;4.33;3.93;;;22.20;99.90;;;;;;494591;240;29340;-71
2022/05/11 10:02:28;;;;;;;4.43;4.00;;;22.30;99.90;;;;;;494452;240;29295;-71
2022/05/11 10:04:29;;;;;;;3.80;3.50;;;22.30;99.90;;;;;;494631;240;28721;-71
2022/05/11 10:06:30;;;;;;;3.70;3.40;;;22.30;99.90;;;;;;494545;240;28779;-72
2022/05/11 10:08:31;;;;;;;4.30;3.90;;;22.30;99.90;;;;;;494551;240;28817;-71
2022/05/11 10:10:33;;;;;;;3.80;3.50;;;22.20;99.90;;;;;;494547;240;28831;-71
2022/05/11 10:12:35;;;;;;;4.57;4.17;;;22.30;99.90;;;;;;494595;240;29327;-74
2022/05/11 10:23:53;;;;;;;3.70;3.40;;;22.50;99.90;;;;;;494631;240;28728;-72
2022/05/11 10:25:54;;;;;;;3.90;3.43;;;22.50;99.90;;;;;;494635;240;28932;-73
2022/05/11 10:27:56;;;;;;;4.13;3.83;;;22.70;99.90;;;;;;494620;237;28838;-71
2022/05/11 10:29:57;;;;;;;4.20;3.90;;;22.60;99.90;;;;;;494634;240;28762;-72
2022/05/11 10:31:58;;;;;;;4.60;3.50;;;22.70;99.90;;;;;;494596;240;28749;-71
2022/05/11 10:34:00;;;;;;;3.97;3.67;;;22.70;99.90;;;;;;494627;240;28884;-71
2022/05/11 10:36:01;;;;;;;3.83;3.53;;;22.70;99.90;;;;;;494518;240;28829;-73
2022/05/11 10:38:02;;;;;;;4.07;3.77;;;22.70;99.90;;;;;;494579;240;29273;-71
2022/05/11 10:40:03;;;;;;;4.20;3.50;;;22.70;99.90;;;;;;494606;240;29300;-72
2022/05/11 10:42:04;;;;;;;3.57;3.27;;;22.70;99.90;;;;;;494608;240;30055;-71
2022/05/11 10:44:07;;;;;;;4.07;3.73;;;22.60;99.90;;;;;;494617;240;28758;-71
2022/05/11 10:46:07;;;;;;;4.00;3.70;;;22.90;99.90;;;;;;494579;240;28864;-73
2022/05/11 10:48:08;;;;;;;7.20;3.43;;;23.00;99.90;;;;;;494604;240;28829;-71
2022/05/11 10:50:09;;;;;;;3.97;3.67;;;22.90;99.90;;;;;;494599;240;28748;-71
2022/05/11 10:52:11;;;;;;;4.63;3.60;;;22.80;99.90;;;;;;494609;240;28781;-71
2022/05/11 10:54:12;;;;;;;4.83;3.87;;;22.80;99.90;;;;;;494623;240;28821;-71
2022/05/11 10:56:13;;;;;;;5.20;3.30;;;22.80;99.90;;;;;;494585;240;28887;-72
2022/05/11 10:58:15;;;;;;;4.07;3.70;;;22.80;99.90;;;;;;494589;240;28722;-71
2022/05/11 11:00:18;;;;;;;4.37;3.17;;;22.70;99.90;;;;;;494607;240;28863;-72
2022/05/11 11:02:18;;;;;;;4.13;3.50;;;23.00;99.90;;;;;;494520;240;29992;-75
2022/05/11 11:04:18;;;;;;;3.70;3.40;;;23.00;99.90;;;;;;494644;240;29281;-71
2022/05/11 11:08:40;;;;;;;4.17;3.63;;;22.80;99.90;;;;;;494677;240;28749;-74